Time;durP1;ratioP1;P1;durP2;ratioP2;P2;SDS_P1;SDS_P2;PMS_P1;PMS_P2;Temp;Humidity;BMP_temperature;BMP_pressure;BME280_temperature;BME280_humidity;BME280_pressure;Samples;Min_cycle;Max_cycle;Signal;HPM_P1;HPM_P2
2022/11/15 00:00:06;;;;;;;11.13;6.90;;;;;;;7.64;100.00;98846.22;5101585;27;20047;-60
2022/11/15 00:02:31;;;;;;;10.20;6.22;;;;;;;7.72;100.00;98848.22;5079239;28;20148;-61
2022/11/15 00:04:57;;;;;;;10.57;6.63;;;;;;;7.76;100.00;98843.59;5073065;28;20753;-59
2022/11/15 00:07:22;;;;;;;10.40;6.60;;;;;;;7.71;100.00;98849.16;5099327;28;20023;-60
2022/11/15 00:09:48;;;;;;;9.82;6.65;;;;;;;7.77;100.00;98847.84;5097230;28;20031;-59
2022/11/15 00:12:13;;;;;;;11.32;6.90;;;;;;;7.86;100.00;98840.16;5102398;28;20023;-59
2022/11/15 00:14:38;;;;;;;11.27;6.90;;;;;;;7.55;100.00;98805.53;5114503;27;20027;-59
2022/11/15 00:17:04;;;;;;;11.15;6.43;;;;;;;7.69;100.00;98815.63;5099486;28;20539;-60
2022/11/15 00:19:29;;;;;;;9.73;6.38;;;;;;;7.36;100.00;98767.34;5091430;28;20032;-61
2022/11/15 00:21:55;;;;;;;10.25;6.53;;;;;;;7.41;100.00;98760.06;5089078;28;20043;-61
2022/11/15 00:24:20;;;;;;;9.95;6.30;;;;;;;7.60;100.00;98793.06;5119361;27;20028;-60
2022/11/15 00:26:45;;;;;;;10.52;6.32;;;;;;;7.61;100.00;98779.19;5102919;27;20024;-60
2022/11/15 00:29:11;;;;;;;10.07;6.80;;;;;;;7.35;100.00;98750.16;5098403;27;20759;-61
2022/11/15 00:31:36;;;;;;;10.02;6.13;;;;;;;7.53;100.00;98772.97;5093521;28;20063;-60
2022/11/15 00:34:02;;;;;;;9.05;5.85;;;;;;;7.56;100.00;98776.13;5092346;28;20062;-59
2022/11/15 00:36:27;;;;;;;11.57;6.75;;;;;;;7.57;100.00;98766.59;5097324;28;20447;-61
2022/11/15 00:38:53;;;;;;;9.55;6.32;;;;;;;7.41;100.00;98752.28;5111425;27;20486;-60
2022/11/15 00:41:18;;;;;;;11.88;6.40;;;;;;;7.49;100.00;98770.59;5092408;28;20035;-59
2022/11/15 00:43:43;;;;;;;9.50;6.35;;;;;;;7.50;100.00;98766.25;5081026;28;20478;-60
2022/11/15 00:46:09;;;;;;;9.10;5.75;;;;;;;7.57;100.00;98772.59;5079735;28;20119;-60
2022/11/15 00:48:36;;;;;;;10.63;6.20;;;;;;;7.52;100.00;98772.16;5083429;28;20032;-62
2022/11/15 00:51:01;;;;;;;11.43;7.03;;;;;;;7.51;100.00;98773.91;5076409;28;20498;-59
2022/11/15 00:53:26;;;;;;;9.73;6.25;;;;;;;7.51;100.00;98768.72;5094471;28;20054;-61
2022/11/15 00:55:52;;;;;;;10.55;6.35;;;;;;;7.49;100.00;98764.63;5095107;28;20020;-61
2022/11/15 00:58:18;;;;;;;10.13;5.78;;;;;;;7.54;100.00;98780.59;5096893;28;20081;-59
2022/11/15 01:00:43;;;;;;;10.68;6.60;;;;;;;7.58;100.00;98778.59;5093558;28;20034;-59
2022/11/15 01:03:08;;;;;;;9.68;5.60;;;;;;;7.53;100.00;98773.78;5115801;27;20509;-61
2022/11/15 01:05:37;;;;;;;10.30;6.00;;;;;;;7.48;100.00;98771.56;5078050;28;20026;-59
2022/11/15 01:08:03;;;;;;;10.48;5.82;;;;;;;7.46;100.00;98782.97;5071388;28;20031;-60
2022/11/15 01:10:28;;;;;;;11.23;6.15;;;;;;;7.46;100.00;98780.38;5094793;27;20032;-60
2022/11/15 01:12:54;;;;;;;9.68;5.90;;;;;;;7.50;100.00;98767.09;5093991;28;20036;-61
2022/11/15 01:15:19;;;;;;;9.75;6.32;;;;;;;7.47;100.00;98774.28;5111366;27;20024;-61
2022/11/15 01:17:44;;;;;;;12.32;6.65;;;;;;;7.50;100.00;98772.25;5091276;27;20536;-59
2022/11/15 01:20:10;;;;;;;10.88;6.40;;;;;;;7.46;100.00;98772.63;5096695;28;20028;-60
2022/11/15 01:22:36;;;;;;;10.52;6.32;;;;;;;7.42;100.00;98766.84;5082362;28;20041;-59
2022/11/15 01:25:01;;;;;;;10.90;6.05;;;;;;;7.46;100.00;98763.06;5086785;28;20027;-60
2022/11/15 01:27:26;;;;;;;10.95;6.47;;;;;;;7.45;100.00;98760.63;5095150;28;20146;-60
2022/11/15 01:29:52;;;;;;;9.95;6.18;;;;;;;7.58;100.00;98761.31;5078470;28;20122;-59
2022/11/15 01:32:17;;;;;;;11.98;6.15;;;;;;;7.55;100.00;98756.34;5096564;28;20012;-60
2022/11/15 01:34:43;;;;;;;9.88;6.43;;;;;;;7.50;100.00;98761.91;5088005;27;20032;-59
2022/11/15 01:37:08;;;;;;;9.65;5.85;;;;;;;7.54;100.00;98765.09;5092975;28;20095;-58
2022/11/15 01:39:34;;;;;;;9.32;5.45;;;;;;;7.21;100.00;98727.16;5117149;27;20406;-59
2022/11/15 01:41:59;;;;;;;9.57;6.10;;;;;;;7.47;100.00;98756.16;5084341;27;20032;-60
2022/11/15 01:44:34;;;;;;;10.57;6.07;;;;;;;7.45;100.00;98765.81;5080356;28;20081;-62
2022/11/15 01:47:02;;;;;;;10.18;6.25;;;;;;;7.33;100.00;98757.22;5092582;28;20103;-60
2022/11/15 01:49:29;;;;;;;11.10;6.72;;;;;;;7.08;100.00;98725.56;5091497;28;20034;-61
2022/11/15 01:51:55;;;;;;;10.38;6.35;;;;;;;7.32;100.00;98747.84;5095831;27;20536;-60
2022/11/15 01:54:21;;;;;;;10.07;5.72;;;;;;;7.30;100.00;98752.28;5090365;28;20032;-61
2022/11/15 01:56:55;;;;;;;10.15;6.25;;;;;;;7.38;100.00;98759.47;5089736;28;20189;-62
2022/11/15 01:59:21;;;;;;;11.40;6.10;;;;;;;7.20;100.00;98739.28;5068090;28;20020;-61
2022/11/15 02:01:47;;;;;;;10.25;6.80;;;;;;;7.33;100.00;98765.00;5090833;28;20947;-60
2022/11/15 02:04:16;;;;;;;10.70;6.03;;;;;;;7.16;100.00;98717.19;5112211;27;20055;-61
2022/11/15 02:06:42;;;;;;;9.32;6.10;;;;;;;7.34;100.00;98739.94;5096300;28;20036;-61
2022/11/15 02:09:08;;;;;;;8.27;5.40;;;;;;;7.45;100.00;98761.44;5095411;28;20486;-60
2022/11/15 02:11:33;;;;;;;11.75;6.82;;;;;;;7.50;100.00;98758.47;5071549;28;20120;-61
2022/11/15 02:14:00;;;;;;;10.27;6.32;;;;;;;7.46;100.00;98752.72;5097920;28;20039;-59
2022/11/15 02:16:48;;;;;;;11.48;5.80;;;;;;;7.34;100.00;98737.34;5097710;28;20036;-59
2022/11/15 02:19:29;;;;;;;10.88;5.93;;;;;;;7.03;100.00;98688.88;5088766;28;20024;-59
2022/11/15 02:22:32;;;;;;;14.13;5.82;;;;;;;7.31;100.00;98734.06;5087268;28;20799;-59
2022/11/15 02:25:12;;;;;;;12.75;6.30;;;;;;;7.25;100.00;98734.56;5067146;28;20039;-61
2022/11/15 02:28:06;;;;;;;15.15;6.28;;;;;;;7.28;100.00;98733.50;5094879;28;20085;-60
2022/11/15 02:30:52;;;;;;;9.35;5.60;;;;;;;7.22;100.00;98727.03;5086970;28;20019;-60
2022/11/15 02:33:46;;;;;;;9.57;6.05;;;;;;;7.27;100.00;98734.44;5078710;28;20039;-60
2022/11/15 02:36:15;;;;;;;10.07;6.10;;;;;;;7.09;100.00;98703.09;5092073;28;20036;-60
2022/11/15 02:39:16;;;;;;;9.80;5.90;;;;;;;7.05;100.00;98696.53;5093139;28;20036;-59
2022/11/15 02:41:54;;;;;;;9.95;6.05;;;;;;;7.16;100.00;98718.97;5082921;28;20078;-60
2022/11/15 02:44:43;;;;;;;10.15;6.18;;;;;;;7.25;100.00;98713.88;5092173;28;20031;-61
2022/11/15 02:47:15;;;;;;;10.43;5.90;;;;;;;7.25;100.00;98721.63;5098998;28;20059;-59
2022/11/15 02:49:47;;;;;;;10.13;6.22;;;;;;;7.27;100.00;98713.75;5112498;28;20035;-59
2022/11/15 02:52:17;;;;;;;12.27;6.03;;;;;;;7.27;100.00;98709.41;5071066;28;20028;-60
2022/11/15 02:54:42;;;;;;;;;;;;;;;7.25;100.00;98711.28;5087676;28;20118;-60
2022/11/15 02:57:14;;;;;;;9.02;5.07;;;;;;;7.22;100.00;98697.78;5129121;27;20322;-60
2022/11/15 03:00:03;;;;;;;8.55;4.97;;;;;;;7.23;100.00;98702.84;5087678;28;20024;-61
2022/11/15 03:03:14;;;;;;;10.32;6.20;;;;;;;7.23;100.00;98704.59;5104321;28;20434;-61
2022/11/15 03:06:02;;;;;;;8.98;5.43;;;;;;;7.23;100.00;98702.84;5042291;28;20110;-59
2022/11/15 03:08:50;;;;;;;8.70;5.35;;;;;;;7.20;100.00;98700.47;5085299;28;20027;-60
2022/11/15 03:11:18;;;;;;;10.88;5.63;;;;;;;7.22;100.00;98692.59;5087943;28;20065;-62
2022/11/15 03:13:46;;;;;;;9.68;5.22;;;;;;;6.72;100.00;98610.34;5092722;28;20152;-60
2022/11/15 03:16:20;;;;;;;10.93;5.88;;;;;;;7.18;100.00;98684.25;5091845;28;20035;-61
2022/11/15 03:18:52;;;;;;;9.63;5.72;;;;;;;7.07;100.00;98668.78;5092267;28;20109;-61
2022/11/15 03:21:19;;;;;;;10.52;5.72;;;;;;;7.10;100.00;98682.28;5066137;28;20085;-61
2022/11/15 03:23:44;;;;;;;10.07;5.90;;;;;;;7.13;100.00;98684.63;5093345;28;20386;-60
2022/11/15 03:26:12;;;;;;;9.05;5.07;;;;;;;6.81;100.00;98635.47;5072311;28;20028;-60
2022/11/15 03:28:42;;;;;;;9.98;5.35;;;;;;;7.10;100.00;98679.69;5092478;28;20023;-60
2022/11/15 03:33:54;;;;;;;8.23;4.65;;;;;;;7.01;100.00;98669.25;5088213;28;20035;-60
2022/11/15 03:36:22;;;;;;;9.90;6.05;;;;;;;7.05;100.00;98670.66;5093943;28;20028;-60
2022/11/15 03:38:48;;;;;;;9.88;5.65;;;;;;;7.03;100.00;98669.97;5093751;28;20588;-60
2022/11/15 03:41:23;;;;;;;9.95;4.97;;;;;;;6.92;100.00;98656.13;5083153;28;20040;-60
2022/11/15 03:44:16;;;;;;;10.10;5.43;;;;;;;7.01;100.00;98664.91;5094890;28;20581;-59
2022/11/15 03:46:54;;;;;;;8.90;5.38;;;;;;;7.04;100.00;98661.25;5075985;28;20035;-60
2022/11/15 03:49:32;;;;;;;9.65;5.22;;;;;;;7.03;100.00;98644.13;5091399;28;20024;-60
2022/11/15 03:51:59;;;;;;;11.23;5.82;;;;;;;7.02;100.00;98663.16;5094016;28;20104;-61
2022/11/15 03:54:24;;;;;;;9.38;5.53;;;;;;;6.99;100.00;98651.28;5098040;27;20150;-60
2022/11/15 03:56:49;;;;;;;10.27;5.40;;;;;;;6.96;100.00;98643.78;5097558;28;20620;-59
2022/11/15 03:59:15;;;;;;;7.80;4.75;;;;;;;7.01;100.00;98640.81;5092043;28;20036;-61
2022/11/15 04:01:40;;;;;;;9.93;5.30;;;;;;;7.02;100.00;98639.88;5091696;28;20036;-61
2022/11/15 04:04:06;;;;;;;9.93;5.45;;;;;;;7.08;100.00;98645.41;5098246;28;20042;-61
2022/11/15 04:06:31;;;;;;;8.57;4.90;;;;;;;7.11;100.00;98644.31;5091752;28;20074;-61
2022/11/15 04:08:57;;;;;;;8.00;4.80;;;;;;;7.11;100.00;98639.97;5084046;28;20039;-61
2022/11/15 04:11:22;;;;;;;9.07;5.10;;;;;;;7.12;100.00;98639.03;5085379;28;20031;-60
2022/11/15 04:13:47;;;;;;;8.73;5.43;;;;;;;6.88;100.00;98597.00;5089234;28;20564;-62
2022/11/15 04:16:13;;;;;;;7.85;4.65;;;;;;;7.17;100.00;98630.88;5093679;28;20102;-60
2022/11/15 04:18:38;;;;;;;8.73;4.93;;;;;;;7.20;100.00;98632.44;5096149;28;20059;-60
2022/11/15 04:26:31;;;;;;;8.40;4.85;;;;;;;7.20;100.00;98632.44;5094792;28;20074;-61
2022/11/15 04:31:41;;;;;;;9.38;5.50;;;;;;;7.21;100.00;98626.28;5095031;28;20039;-61
2022/11/15 04:34:07;;;;;;;9.77;5.07;;;;;;;7.22;100.00;98630.53;5100808;28;20023;-60
2022/11/15 04:39:16;;;;;;;9.10;5.20;;;;;;;7.27;100.00;98626.63;5099865;28;20073;-61
2022/11/15 04:41:41;;;;;;;9.15;4.93;;;;;;;7.10;100.00;98593.53;5092328;28;20036;-61
2022/11/15 04:44:07;;;;;;;9.15;5.18;;;;;;;7.25;100.00;98620.75;5095732;28;20026;-59
2022/11/15 04:46:32;;;;;;;11.00;5.22;;;;;;;7.32;100.00;98623.69;5081748;28;20128;-62
2022/11/15 04:48:58;;;;;;;8.55;5.03;;;;;;;7.31;100.00;98624.63;5084589;28;20101;-60
2022/11/15 04:51:23;;;;;;;8.73;5.15;;;;;;;7.36;100.00;98619.91;5074603;28;20027;-60
2022/11/15 04:53:49;;;;;;;8.45;5.03;;;;;;;7.34;100.00;98619.22;5096512;28;20042;-61
2022/11/15 04:56:14;;;;;;;8.57;4.75;;;;;;;7.38;100.00;98614.59;5072796;28;20496;-61
2022/11/15 04:58:39;;;;;;;9.18;5.53;;;;;;;7.37;100.00;98600.84;5092609;28;20049;-61
2022/11/15 05:01:10;;;;;;;8.32;4.88;;;;;;;7.41;100.00;98607.41;5090516;27;20130;-62
2022/11/15 05:06:19;;;;;;;8.15;4.45;;;;;;;7.10;100.00;98560.75;5097308;28;20139;-62
2022/11/15 05:08:44;;;;;;;9.40;4.90;;;;;;;7.40;100.00;98605.78;5088545;28;20126;-60
2022/11/15 05:11:10;;;;;;;9.15;5.00;;;;;;;7.37;100.00;98606.00;5092356;28;20035;-60
2022/11/15 05:13:35;;;;;;;7.32;4.50;;;;;;;7.40;100.00;98605.78;5096918;28;20035;-60
2022/11/15 05:16:00;;;;;;;8.63;4.90;;;;;;;7.37;100.00;98595.66;5095200;28;20085;-62
2022/11/15 05:18:26;;;;;;;7.75;4.47;;;;;;;7.42;100.00;98596.13;5111621;27;20035;-61
2022/11/15 05:20:51;;;;;;;8.35;4.57;;;;;;;7.38;100.00;98599.09;5094740;28;20466;-60
2022/11/15 05:23:16;;;;;;;7.57;4.22;;;;;;;7.09;100.00;98548.75;5081739;28;20031;-60
2022/11/15 05:25:42;;;;;;;7.70;4.43;;;;;;;7.40;100.00;98594.59;5092791;28;20042;-62
2022/11/15 05:28:07;;;;;;;8.15;4.50;;;;;;;7.38;100.00;98586.16;5090405;28;20088;-61
2022/11/15 05:30:33;;;;;;;7.35;4.13;;;;;;;7.41;100.00;98578.97;5098657;27;20031;-60
2022/11/15 05:32:59;;;;;;;7.55;4.32;;;;;;;7.07;100.00;98532.56;5089235;27;20024;-60
2022/11/15 05:35:34;;;;;;;6.93;3.88;;;;;;;7.15;100.00;98536.28;5098324;28;20495;-59
2022/11/15 05:38:00;;;;;;;7.43;4.38;;;;;;;7.30;100.00;98574.66;5092284;28;20027;-60
2022/11/15 05:40:26;;;;;;;6.55;3.75;;;;;;;7.35;100.00;98569.09;5091066;28;20027;-61
2022/11/15 05:42:51;;;;;;;5.93;3.20;;;;;;;7.30;100.00;98566.91;5121804;27;20558;-60
2022/11/15 05:45:17;;;;;;;8.57;4.03;;;;;;;7.39;100.00;98569.66;5095485;28;20036;-62
2022/11/15 05:47:42;;;;;;;7.32;4.15;;;;;;;7.37;100.00;98561.22;5094518;28;20367;-60
2022/11/15 05:50:12;;;;;;;7.28;4.00;;;;;;;7.41;100.00;98568.63;5097443;28;20088;-61
2022/11/15 05:52:37;;;;;;;7.15;3.42;;;;;;;7.42;100.00;98566.84;5093228;27;20027;-62
2022/11/15 05:55:05;;;;;;;7.03;3.92;;;;;;;7.36;100.00;98570.75;5073861;28;20028;-63
2022/11/15 05:57:31;;;;;;;8.43;4.15;;;;;;;7.34;100.00;98558.88;5075586;28;20042;-62
2022/11/15 05:59:56;;;;;;;6.25;3.47;;;;;;;7.36;100.00;98575.13;5087457;28;20040;-60
2022/11/15 06:02:22;;;;;;;7.82;3.72;;;;;;;7.44;100.00;98578.69;5097271;28;21292;-60
2022/11/15 06:04:47;;;;;;;7.75;4.32;;;;;;;7.39;100.00;98569.66;5094165;27;20138;-61
2022/11/15 06:07:12;;;;;;;6.78;3.83;;;;;;;7.44;100.00;98577.88;5096618;28;20697;-62
2022/11/15 06:09:38;;;;;;;7.15;3.97;;;;;;;7.40;100.00;98581.69;5096797;28;20070;-64
2022/11/15 06:12:03;;;;;;;6.43;3.53;;;;;;;7.46;100.00;98584.56;5100487;28;20094;-60
2022/11/15 06:14:29;;;;;;;7.10;4.10;;;;;;;7.38;100.00;98574.03;5035247;28;20024;-61
2022/11/15 06:16:55;;;;;;;8.90;3.83;;;;;;;7.46;100.00;98571.63;5065048;28;20027;-60
2022/11/15 06:19:20;;;;;;;6.15;3.45;;;;;;;7.46;100.00;98568.22;5094415;28;20031;-61
2022/11/15 06:21:46;;;;;;;7.43;3.95;;;;;;;7.48;100.00;98563.75;5075843;28;20063;-62
2022/11/15 06:24:11;;;;;;;7.70;4.38;;;;;;;7.44;100.00;98558.00;5074111;28;20088;-61
2022/11/15 06:26:36;;;;;;;6.90;3.80;;;;;;;7.53;100.00;98565.97;5094744;28;20031;-62
2022/11/15 06:29:04;;;;;;;7.05;3.63;;;;;;;7.50;100.00;98567.88;5095752;28;20031;-61
2022/11/15 06:31:29;;;;;;;6.68;3.60;;;;;;;7.54;100.00;98571.03;5099367;28;20490;-62
2022/11/15 06:33:55;;;;;;;6.57;3.55;;;;;;;7.32;100.00;98517.63;5071822;28;20106;-60
2022/11/15 06:36:20;;;;;;;7.53;4.00;;;;;;;7.58;100.00;98563.81;5109704;27;20026;-61
2022/11/15 06:38:46;;;;;;;7.05;3.90;;;;;;;7.55;100.00;98557.13;5089518;28;20035;-60
2022/11/15 06:41:13;;;;;;;6.93;3.55;;;;;;;7.43;100.00;98535.69;5093215;28;20098;-61
2022/11/15 06:43:38;;;;;;;6.88;3.83;;;;;;;7.69;100.00;98571.50;5083404;28;20024;-61
2022/11/15 06:46:05;;;;;;;5.97;3.40;;;;;;;7.72;100.00;98573.00;5109051;27;20537;-61
2022/11/15 06:48:32;;;;;;;7.25;3.53;;;;;;;7.76;100.00;98584.75;5085824;28;20026;-60
2022/11/15 06:51:00;;;;;;;7.00;3.80;;;;;;;7.76;100.00;98587.34;5095124;28;20023;-62
2022/11/15 06:53:25;;;;;;;6.40;3.35;;;;;;;7.79;100.00;98598.25;5079565;28;20016;-62
2022/11/15 06:55:51;;;;;;;6.85;3.70;;;;;;;7.80;100.00;98599.09;5086397;28;20078;-62
2022/11/15 06:58:16;;;;;;;6.78;3.97;;;;;;;7.88;100.00;98602.69;5095751;28;20107;-62
2022/11/15 07:00:42;;;;;;;7.05;3.90;;;;;;;7.86;100.00;98591.63;5116595;27;20024;-61
2022/11/15 07:03:08;;;;;;;6.13;3.55;;;;;;;7.65;100.00;98554.59;5091442;28;20027;-60
2022/11/15 07:05:34;;;;;;;6.13;3.40;;;;;;;7.83;100.00;98568.59;5077764;28;20047;-60
2022/11/15 07:07:59;;;;;;;7.80;3.50;;;;;;;7.71;100.00;98546.31;5090826;28;20570;-63
2022/11/15 07:10:26;;;;;;;7.00;4.05;;;;;;;7.83;100.00;98578.97;5092751;28;20032;-61
2022/11/15 07:12:52;;;;;;;6.22;3.40;;;;;;;8.01;100.00;98601.66;5089252;28;20078;-62
2022/11/15 07:15:18;;;;;;;6.05;3.53;;;;;;;8.01;100.00;98586.97;5129582;27;20027;-62
2022/11/15 07:17:44;;;;;;;7.75;3.60;;;;;;;7.99;100.00;98593.19;5113158;28;20039;-61
2022/11/15 07:20:10;;;;;;;6.32;3.90;;;;;;;7.99;100.00;98601.78;5081525;28;20080;-61
2022/11/15 07:22:36;;;;;;;6.03;3.30;;;;;;;8.03;100.00;98608.34;5116000;28;20039;-61
2022/11/15 07:25:01;;;;;;;6.15;3.20;;;;;;;8.02;100.00;98613.66;5088700;28;20100;-61
2022/11/15 07:27:26;;;;;;;6.38;3.50;;;;;;;8.04;100.00;98617.75;5098296;28;20035;-62
2022/11/15 07:29:52;;;;;;;7.40;3.63;;;;;;;7.82;100.00;98585.06;5094645;28;20035;-61
2022/11/15 07:32:17;;;;;;;6.57;3.40;;;;;;;7.94;100.00;98593.59;5078204;28;20544;-61
2022/11/15 07:34:43;;;;;;;9.07;4.13;;;;;;;8.08;100.00;98620.91;5099562;28;20027;-63
2022/11/15 07:37:08;;;;;;;6.45;3.55;;;;;;;8.03;100.00;98610.94;5075696;28;20031;-61
2022/11/15 07:39:33;;;;;;;6.70;3.92;;;;;;;8.01;100.00;98599.91;5097162;28;20039;-60
2022/11/15 07:44:43;;;;;;;6.70;3.58;;;;;;;7.82;100.00;98568.72;5094929;28;20398;-60
2022/11/15 07:47:09;;;;;;;6.72;3.67;;;;;;;8.07;100.00;98611.50;5096035;28;20031;-59
2022/11/15 07:49:34;;;;;;;6.93;3.83;;;;;;;8.08;100.00;98607.97;5085346;28;20124;-62
2022/11/15 07:51:59;;;;;;;6.40;3.47;;;;;;;8.07;100.00;98604.56;5089475;28;20106;-63
2022/11/15 07:54:25;;;;;;;7.40;3.95;;;;;;;8.05;100.00;98590.09;5096973;28;20019;-60
2022/11/15 07:56:50;;;;;;;6.53;3.40;;;;;;;8.17;100.00;98593.41;5093323;28;20050;-61
2022/11/15 07:59:16;;;;;;;7.45;3.80;;;;;;;8.06;100.00;98584.78;5099105;28;20081;-63
2022/11/15 08:01:41;;;;;;;7.15;3.67;;;;;;;8.15;100.00;98584.97;5091381;28;20623;-61
2022/11/15 08:04:06;;;;;;;5.97;3.53;;;;;;;8.08;100.00;98577.69;5101258;28;20116;-61
2022/11/15 08:06:32;;;;;;;7.50;3.83;;;;;;;8.16;100.00;98582.25;5097735;28;20031;-65
2022/11/15 08:08:57;;;;;;;6.75;3.72;;;;;;;8.14;100.00;98581.56;5094257;28;20027;-61
2022/11/15 08:11:23;;;;;;;6.40;3.55;;;;;;;8.21;100.00;98590.47;5093156;28;20429;-60
2022/11/15 08:13:48;;;;;;;6.00;3.35;;;;;;;7.91;100.00;98543.84;5094200;28;20034;-64
2022/11/15 08:16:14;;;;;;;6.68;3.60;;;;;;;7.84;100.00;98540.94;5094909;28;20513;-61
2022/11/15 08:18:39;;;;;;;8.15;3.40;;;;;;;7.96;100.00;98550.28;5091039;28;20802;-61
2022/11/15 08:21:05;;;;;;;6.47;3.55;;;;;;;8.26;100.00;98577.09;5094282;27;20061;-67
2022/11/15 08:23:31;;;;;;;7.35;3.78;;;;;;;8.17;100.00;98581.28;5096979;28;20461;-64
2022/11/15 08:26:04;;;;;;;6.43;3.65;;;;;;;8.18;100.00;98584.72;5095948;28;20679;-63
2022/11/15 08:28:31;;;;;;;8.10;3.92;;;;;;;8.23;100.00;98585.97;5095241;28;20675;-61
2022/11/15 08:30:56;;;;;;;6.60;3.60;;;;;;;8.18;100.00;98580.34;5120033;27;20618;-62
2022/11/15 08:33:22;;;;;;;6.15;3.33;;;;;;;8.15;100.00;98570.22;5076872;28;20030;-62
2022/11/15 08:35:48;;;;;;;5.88;3.28;;;;;;;8.21;100.00;98574.06;5115021;27;20530;-64
2022/11/15 08:38:13;;;;;;;6.38;3.60;;;;;;;8.11;100.00;98568.88;5098241;28;20130;-61
2022/11/15 08:40:39;;;;;;;6.90;3.97;;;;;;;8.13;100.00;98563.56;5099982;28;20031;-60
2022/11/15 08:43:04;;;;;;;7.97;3.88;;;;;;;7.96;100.00;98536.47;5092468;28;20496;-60
2022/11/15 08:45:31;;;;;;;8.05;3.88;;;;;;;7.88;100.00;98514.69;5094704;28;20035;-62
2022/11/15 08:47:56;;;;;;;7.38;4.20;;;;;;;8.15;100.00;98559.88;5094790;28;20055;-62
2022/11/15 08:50:22;;;;;;;7.07;4.25;;;;;;;8.19;100.00;98552.66;5110363;27;20478;-64
2022/11/15 08:52:50;;;;;;;7.00;4.03;;;;;;;8.19;100.00;98550.88;5093109;28;20035;-61
2022/11/15 08:55:15;;;;;;;6.15;3.58;;;;;;;8.16;100.00;98547.75;5089409;28;20119;-60
2022/11/15 08:57:41;;;;;;;7.47;4.30;;;;;;;8.16;100.00;98542.56;5087363;28;20032;-62
2022/11/15 09:00:07;;;;;;;7.85;3.97;;;;;;;8.14;100.00;98547.06;5109889;27;20127;-61
2022/11/15 09:02:32;;;;;;;7.68;4.43;;;;;;;8.18;100.00;98558.81;5100217;28;20034;-63
2022/11/15 09:04:57;;;;;;;7.43;4.50;;;;;;;8.25;100.00;98563.34;5088777;28;20019;-61
2022/11/15 09:07:23;;;;;;;7.65;4.18;;;;;;;8.21;100.00;98561.13;5097627;28;20501;-60
2022/11/15 09:09:49;;;;;;;7.38;4.57;;;;;;;8.25;100.00;98560.75;5094252;28;20112;-62
2022/11/15 09:12:14;;;;;;;7.90;4.28;;;;;;;8.10;100.00;98541.31;5090555;28;20030;-62
2022/11/15 09:14:40;;;;;;;8.50;4.43;;;;;;;8.20;100.00;98569.84;5098704;28;20028;-61
2022/11/15 09:17:08;;;;;;;7.53;4.25;;;;;;;8.34;100.00;98566.06;5076115;28;20062;-62
2022/11/15 09:19:34;;;;;;;9.20;4.90;;;;;;;8.43;100.00;98566.16;5112758;27;20498;-59
2022/11/15 09:21:59;;;;;;;6.72;4.18;;;;;;;8.41;100.00;98568.00;5097634;28;20019;-62
2022/11/15 09:24:25;;;;;;;8.32;3.95;;;;;;;8.45;100.00;98566.84;5098204;28;20088;-61
2022/11/15 09:26:51;;;;;;;8.15;4.20;;;;;;;8.52;100.00;98571.47;5117993;27;20492;-61
2022/11/15 09:29:17;;;;;;;7.30;4.30;;;;;;;8.45;100.00;98566.84;5079306;28;20036;-63
2022/11/15 09:31:43;;;;;;;7.32;4.28;;;;;;;8.54;100.00;98562.63;5099182;28;20027;-62
2022/11/15 09:34:08;;;;;;;8.10;4.63;;;;;;;8.62;100.00;98561.97;5071538;28;21145;-61
2022/11/15 09:36:34;;;;;;;7.22;3.95;;;;;;;8.60;100.00;98567.28;5090446;28;20035;-62
2022/11/15 09:39:00;;;;;;;11.52;4.75;;;;;;;8.70;100.00;98574.25;5095511;28;20039;-64
2022/11/15 09:41:44;;;;;;;10.57;5.28;;;;;;;8.51;100.00;98542.16;5079604;28;20028;-62
2022/11/15 09:44:36;;;;;;;7.30;4.20;;;;;;;8.74;100.00;98578.22;5084107;28;20027;-62
2022/11/15 09:47:29;;;;;;;9.13;4.50;;;;;;;8.70;100.00;98580.25;5089479;28;20110;-64
2022/11/15 09:49:58;;;;;;;7.80;4.30;;;;;;;8.48;100.00;98544.19;5105704;27;20044;-62
2022/11/15 09:52:24;;;;;;;6.60;3.72;;;;;;;8.73;100.00;98572.22;5073422;28;20065;-61
2022/11/15 09:54:51;;;;;;;6.88;3.88;;;;;;;8.82;100.00;98568.00;5116480;27;20027;-60
2022/11/15 09:57:39;;;;;;;6.75;3.80;;;;;;;8.87;100.00;98576.19;5099489;28;20774;-64
2022/11/15 10:00:13;;;;;;;7.63;4.10;;;;;;;8.85;100.00;98572.91;5081242;28;20501;-63
2022/11/15 10:02:48;;;;;;;6.53;3.70;;;;;;;8.95;100.00;98581.53;5093475;28;20064;-59
2022/11/15 10:05:20;;;;;;;7.13;3.90;;;;;;;8.93;100.00;98570.47;5094576;28;20043;-59
2022/11/15 10:08:10;;;;;;;7.43;3.88;;;;;;;8.95;100.00;98575.53;5093525;28;20031;-63
2022/11/15 10:10:40;;;;;;;7.18;4.20;;;;;;;8.92;100.00;98566.22;5102312;27;20826;-63
2022/11/15 10:13:25;;;;;;;7.47;3.75;;;;;;;8.87;100.00;98565.84;5090266;28;20031;-63
2022/11/15 10:15:53;;;;;;;7.72;4.65;;;;;;;8.93;100.00;98562.69;5099260;27;20034;-62
2022/11/15 10:19:17;;;;;;;6.07;3.55;;;;;;;8.92;100.00;98557.63;5094911;28;20027;-60
2022/11/15 10:22:04;;;;;;;8.02;4.13;;;;;;;8.72;100.00;98523.09;5032408;28;20047;-61
2022/11/15 10:24:34;;;;;;;6.85;3.88;;;;;;;8.84;100.00;98537.56;5020870;28;20317;-61
2022/11/15 10:27:00;;;;;;;7.20;3.97;;;;;;;8.94;100.00;98532.38;5052456;28;20035;-60
2022/11/15 10:29:26;;;;;;;6.90;3.83;;;;;;;8.92;100.00;98542.06;5093236;28;20101;-63
2022/11/15 10:31:51;;;;;;;6.43;3.53;;;;;;;8.88;100.00;98531.16;5094514;28;20824;-60
2022/11/15 10:34:20;;;;;;;7.38;3.83;;;;;;;8.91;100.00;98530.06;5098694;28;20027;-62
2022/11/15 10:36:55;;;;;;;6.45;3.88;;;;;;;8.92;100.00;98522.13;5110527;27;20024;-59
2022/11/15 10:39:21;;;;;;;6.75;3.85;;;;;;;8.86;100.00;98509.72;5108017;27;20024;-61
2022/11/15 10:41:46;;;;;;;6.60;3.95;;;;;;;8.85;100.00;98495.13;5095366;28;20184;-61
2022/11/15 10:44:21;;;;;;;7.22;3.95;;;;;;;8.79;100.00;98482.72;5091892;28;20593;-62
2022/11/15 10:47:27;;;;;;;7.97;3.75;;;;;;;9.01;100.00;98508.34;5096222;28;20028;-62
2022/11/15 10:49:55;;;;;;;6.43;3.80;;;;;;;8.99;100.00;98499.91;5093237;27;20441;-60
2022/11/15 10:52:22;;;;;;;7.53;3.97;;;;;;;8.91;100.00;98501.53;5094984;28;20027;-61
2022/11/15 10:55:16;;;;;;;6.93;3.63;;;;;;;9.01;100.00;98505.75;5079908;28;20055;-63
2022/11/15 10:57:49;;;;;;;9.30;4.45;;;;;;;9.01;100.00;98497.97;5079015;28;20056;-61
2022/11/15 11:00:20;;;;;;;6.93;3.72;;;;;;;8.97;100.00;98494.03;5083510;28;20020;-62
2022/11/15 11:02:55;;;;;;;6.65;3.80;;;;;;;9.01;100.00;98500.56;5095457;28;20043;-61
2022/11/15 11:05:37;;;;;;;7.32;4.30;;;;;;;8.82;100.00;98457.31;5086836;28;20032;-60
2022/11/15 11:08:15;;;;;;;7.18;4.30;;;;;;;9.10;100.00;98483.38;5078934;28;20048;-59
2022/11/15 11:10:55;;;;;;;9.07;4.07;;;;;;;9.03;100.00;98480.53;5094479;28;20028;-63
2022/11/15 11:13:28;;;;;;;6.85;3.75;;;;;;;9.11;100.00;98479.00;5098276;28;20036;-60
2022/11/15 11:16:19;;;;;;;7.00;3.88;;;;;;;8.94;100.00;98470.16;5116261;27;20031;-60
2022/11/15 11:18:44;;;;;;;6.95;4.15;;;;;;;8.63;100.00;98423.63;5092337;27;20077;-59
2022/11/15 11:21:33;;;;;;;6.40;4.03;;;;;;;8.95;100.00;98458.81;5100222;27;20031;-60
2022/11/15 11:24:08;;;;;;;7.47;4.40;;;;;;;8.97;100.00;98452.53;5101410;28;20086;-60
2022/11/15 11:26:33;;;;;;;8.07;4.22;;;;;;;8.97;100.00;98442.16;5117360;27;20030;-60
2022/11/15 11:29:43;;;;;;;7.90;4.47;;;;;;;8.83;100.00;98435.66;5099810;27;20020;-61
2022/11/15 11:32:30;;;;;;;9.68;4.28;;;;;;;8.88;100.00;98427.44;5062558;28;20115;-60
2022/11/15 11:35:04;;;;;;;6.45;3.95;;;;;;;8.64;100.00;98394.16;5095107;28;20024;-61
2022/11/15 11:37:54;;;;;;;9.07;4.40;;;;;;;8.51;100.00;98384.09;5097821;28;20027;-59
2022/11/15 11:40:48;;;;;;;6.50;3.72;;;;;;;8.82;100.00;98426.22;5096569;28;20032;-60
2022/11/15 11:43:31;;;;;;;8.60;4.60;;;;;;;8.80;100.00;98424.72;5090241;28;20028;-61
2022/11/15 11:46:20;;;;;;;8.35;4.00;;;;;;;8.87;100.00;98425.81;5101661;28;20032;-61
2022/11/15 11:49:03;;;;;;;7.13;3.63;;;;;;;8.83;100.00;98416.66;5095050;28;20036;-64
2022/11/15 11:51:34;;;;;;;7.88;4.03;;;;;;;8.87;100.00;98422.38;5101520;27;20062;-61
2022/11/15 11:54:21;;;;;;;7.03;4.20;;;;;;;9.00;100.00;98428.13;5104215;28;20645;-59
2022/11/15 11:56:48;;;;;;;6.53;3.80;;;;;;;9.08;100.00;98411.84;5102905;27;20073;-62
2022/11/15 11:59:16;;;;;;;8.25;4.00;;;;;;;9.13;100.00;98418.25;5097188;28;20023;-59
2022/11/15 12:01:44;;;;;;;7.40;4.05;;;;;;;9.10;100.00;98409.94;5094955;28;20047;-61